sensor_id;sensor_type;location;lat;lon;timestamp;temperature;humidity
14378;DHT22;7272;53.668;9.578;2022-08-05T00:02:24;19.00;99.90
14378;DHT22;7272;53.668;9.578;2022-08-05T00:05:26;19.00;99.90
14378;DHT22;7272;53.668;9.578;2022-08-05T00:08:28;19.10;99.90
14378;DHT22;7272;53.668;9.578;2022-08-05T00:11:30;19.20;99.90
14378;DHT22;7272;53.668;9.578;2022-08-05T00:14:34;19.10;99.90
14378;DHT22;7272;53.668;9.578;2022-08-05T00:17:35;19.10;99.90
14378;DHT22;7272;53.668;9.578;2022-08-05T00:20:37;19.00;99.90
14378;DHT22;7272;53.668;9.578;2022-08-05T00:23:41;19.00;99.90
14378;DHT22;7272;53.668;9.578;2022-08-05T00:26:43;19.00;99.90
14378;DHT22;7272;53.668;9.578;2022-08-05T00:29:46;19.00;99.90
14378;DHT22;7272;53.668;9.578;2022-08-05T00:32:48;19.20;99.90
14378;DHT22;7272;53.668;9.578;2022-08-05T00:35:50;19.10;99.90
14378;DHT22;7272;53.668;9.578;2022-08-05T00:38:52;19.00;99.90
14378;DHT22;7272;53.668;9.578;2022-08-05T00:41:54;18.90;99.90
14378;DHT22;7272;53.668;9.578;2022-08-05T00:44:57;19.00;99.90
14378;DHT22;7272;53.668;9.578;2022-08-05T00:47:59;19.00;99.90
14378;DHT22;7272;53.668;9.578;2022-08-05T00:51:01;19.10;99.90
14378;DHT22;7272;53.668;9.578;2022-08-05T00:54:03;19.10;99.90
14378;DHT22;7272;53.668;9.578;2022-08-05T00:57:04;19.10;99.90
14378;DHT22;7272;53.668;9.578;2022-08-05T01:00:09;19.10;99.90
14378;DHT22;7272;53.668;9.578;2022-08-05T01:03:12;19.10;99.90
14378;DHT22;7272;53.668;9.578;2022-08-05T01:06:14;19.10;99.90
14378;DHT22;7272;53.668;9.578;2022-08-05T01:09:16;19.30;99.90
14378;DHT22;7272;53.668;9.578;2022-08-05T01:12:19;19.40;99.90
14378;DHT22;7272;53.668;9.578;2022-08-05T01:15:27;19.30;99.90
14378;DHT22;7272;53.668;9.578;2022-08-05T01:18:32;19.30;99.90
14378;DHT22;7272;53.668;9.578;2022-08-05T01:21:54;19.30;99.90
14378;DHT22;7272;53.668;9.578;2022-08-05T01:25:11;19.20;99.90
14378;DHT22;7272;53.668;9.578;2022-08-05T01:28:23;19.20;99.90
14378;DHT22;7272;53.668;9.578;2022-08-05T01:31:32;19.20;99.90
14378;DHT22;7272;53.668;9.578;2022-08-05T01:34:37;19.10;99.90
14378;DHT22;7272;53.668;9.578;2022-08-05T01:37:45;19.10;99.90
14378;DHT22;7272;53.668;9.578;2022-08-05T01:40:49;19.10;99.90
14378;DHT22;7272;53.668;9.578;2022-08-05T01:43:53;19.10;99.90
14378;DHT22;7272;53.668;9.578;2022-08-05T01:46:57;19.00;99.90
14378;DHT22;7272;53.668;9.578;2022-08-05T01:50:03;19.00;99.90
14378;DHT22;7272;53.668;9.578;2022-08-05T01:53:10;19.10;99.90
14378;DHT22;7272;53.668;9.578;2022-08-05T01:56:14;19.10;99.90
14378;DHT22;7272;53.668;9.578;2022-08-05T01:59:20;19.00;99.90
14378;DHT22;7272;53.668;9.578;2022-08-05T02:02:24;18.90;99.90
14378;DHT22;7272;53.668;9.578;2022-08-05T02:05:30;18.90;99.90
14378;DHT22;7272;53.668;9.578;2022-08-05T02:08:33;18.90;99.90
14378;DHT22;7272;53.668;9.578;2022-08-05T02:11:50;18.90;99.90
14378;DHT22;7272;53.668;9.578;2022-08-05T02:15:01;18.90;99.90
14378;DHT22;7272;53.668;9.578;2022-08-05T02:18:09;18.80;99.90
14378;DHT22;7272;53.668;9.578;2022-08-05T02:21:15;18.80;99.90
14378;DHT22;7272;53.668;9.578;2022-08-05T02:24:21;18.60;99.90
14378;DHT22;7272;53.668;9.578;2022-08-05T02:27:25;18.50;99.90
14378;DHT22;7272;53.668;9.578;2022-08-05T02:30:36;18.50;99.90
14378;DHT22;7272;53.668;9.578;2022-08-05T02:33:42;18.50;99.90
14378;DHT22;7272;53.668;9.578;2022-08-05T02:36:49;18.40;99.90
14378;DHT22;7272;53.668;9.578;2022-08-05T02:39:52;18.40;99.90
14378;DHT22;7272;53.668;9.578;2022-08-05T02:42:55;18.40;99.90
14378;DHT22;7272;53.668;9.578;2022-08-05T02:46:00;18.50;99.90
14378;DHT22;7272;53.668;9.578;2022-08-05T02:49:03;18.70;99.90
14378;DHT22;7272;53.668;9.578;2022-08-05T02:52:09;18.90;99.90
14378;DHT22;7272;53.668;9.578;2022-08-05T02:55:11;18.80;99.90
14378;DHT22;7272;53.668;9.578;2022-08-05T02:58:15;18.80;99.90
14378;DHT22;7272;53.668;9.578;2022-08-05T03:01:22;18.80;99.90
14378;DHT22;7272;53.668;9.578;2022-08-05T03:04:24;18.80;99.90
14378;DHT22;7272;53.668;9.578;2022-08-05T03:07:26;18.80;99.90
14378;DHT22;7272;53.668;9.578;2022-08-05T03:10:28;18.90;99.90
14378;DHT22;7272;53.668;9.578;2022-08-05T03:13:30;18.70;99.90
14378;DHT22;7272;53.668;9.578;2022-08-05T03:16:34;18.50;99.90
14378;DHT22;7272;53.668;9.578;2022-08-05T03:19:36;18.40;99.90
14378;DHT22;7272;53.668;9.578;2022-08-05T03:22:37;18.20;99.90
14378;DHT22;7272;53.668;9.578;2022-08-05T03:25:40;18.20;99.90
14378;DHT22;7272;53.668;9.578;2022-08-05T03:28:42;18.20;99.90
14378;DHT22;7272;53.668;9.578;2022-08-05T03:31:45;18.10;99.90
14378;DHT22;7272;53.668;9.578;2022-08-05T03:34:47;18.10;99.90
14378;DHT22;7272;53.668;9.578;2022-08-05T03:37:49;18.10;99.90
14378;DHT22;7272;53.668;9.578;2022-08-05T03:40:52;18.00;99.90
14378;DHT22;7272;53.668;9.578;2022-08-05T03:43:53;17.90;99.90
14378;DHT22;7272;53.668;9.578;2022-08-05T03:46:57;17.90;99.90
14378;DHT22;7272;53.668;9.578;2022-08-05T03:49:59;17.90;99.90
14378;DHT22;7272;53.668;9.578;2022-08-05T03:53:05;17.90;99.90
14378;DHT22;7272;53.668;9.578;2022-08-05T03:56:11;17.90;99.90
14378;DHT22;7272;53.668;9.578;2022-08-05T03:59:19;17.90;99.90
14378;DHT22;7272;53.668;9.578;2022-08-05T04:02:25;17.80;99.90
14378;DHT22;7272;53.668;9.578;2022-08-05T04:05:31;17.90;99.90
14378;DHT22;7272;53.668;9.578;2022-08-05T04:08:34;18.00;99.90
14378;DHT22;7272;53.668;9.578;2022-08-05T04:11:36;17.90;99.90
14378;DHT22;7272;53.668;9.578;2022-08-05T04:14:38;17.80;99.90
14378;DHT22;7272;53.668;9.578;2022-08-05T04:17:42;17.80;99.90
14378;DHT22;7272;53.668;9.578;2022-08-05T04:20:52;17.80;99.90
14378;DHT22;7272;53.668;9.578;2022-08-05T04:23:55;17.90;99.90
14378;DHT22;7272;53.668;9.578;2022-08-05T04:26:58;17.90;99.90
14378;DHT22;7272;53.668;9.578;2022-08-05T04:30:00;18.00;99.90
14378;DHT22;7272;53.668;9.578;2022-08-05T04:33:03;18.00;99.90
14378;DHT22;7272;53.668;9.578;2022-08-05T04:36:07;17.90;99.90
14378;DHT22;7272;53.668;9.578;2022-08-05T04:39:09;17.90;99.90
14378;DHT22;7272;53.668;9.578;2022-08-05T04:42:11;17.90;99.90
14378;DHT22;7272;53.668;9.578;2022-08-05T04:45:13;18.00;99.90
14378;DHT22;7272;53.668;9.578;2022-08-05T04:48:16;18.00;99.90
14378;DHT22;7272;53.668;9.578;2022-08-05T04:51:18;18.10;99.90
14378;DHT22;7272;53.668;9.578;2022-08-05T04:54:20;18.10;99.90
14378;DHT22;7272;53.668;9.578;2022-08-05T04:57:22;18.10;99.90
14378;DHT22;7272;53.668;9.578;2022-08-05T05:00:24;18.10;99.90
14378;DHT22;7272;53.668;9.578;2022-08-05T05:03:27;18.20;99.90
14378;DHT22;7272;53.668;9.578;2022-08-05T05:06:29;18.30;99.90
14378;DHT22;7272;53.668;9.578;2022-08-05T05:09:31;18.40;99.90
14378;DHT22;7272;53.668;9.578;2022-08-05T05:12:33;18.50;99.90
14378;DHT22;7272;53.668;9.578;2022-08-05T05:15:35;18.40;99.90
14378;DHT22;7272;53.668;9.578;2022-08-05T05:18:38;18.40;99.90
14378;DHT22;7272;53.668;9.578;2022-08-05T05:21:40;18.40;99.90
14378;DHT22;7272;53.668;9.578;2022-08-05T05:24:42;18.60;99.90
14378;DHT22;7272;53.668;9.578;2022-08-05T05:27:44;18.70;99.90
14378;DHT22;7272;53.668;9.578;2022-08-05T05:30:46;18.60;99.90
14378;DHT22;7272;53.668;9.578;2022-08-05T05:33:49;18.60;99.90
14378;DHT22;7272;53.668;9.578;2022-08-05T05:36:51;18.60;99.90
14378;DHT22;7272;53.668;9.578;2022-08-05T05:39:53;18.60;99.90
14378;DHT22;7272;53.668;9.578;2022-08-05T05:42:56;18.50;99.90
14378;DHT22;7272;53.668;9.578;2022-08-05T05:45:58;18.40;99.90
14378;DHT22;7272;53.668;9.578;2022-08-05T05:49:01;18.40;99.90
14378;DHT22;7272;53.668;9.578;2022-08-05T05:52:03;18.40;99.90
14378;DHT22;7272;53.668;9.578;2022-08-05T05:55:07;18.40;99.90
14378;DHT22;7272;53.668;9.578;2022-08-05T05:58:09;18.50;99.90
14378;DHT22;7272;53.668;9.578;2022-08-05T06:01:11;18.60;99.90
14378;DHT22;7272;53.668;9.578;2022-08-05T06:04:14;18.90;99.90
14378;DHT22;7272;53.668;9.578;2022-08-05T06:07:16;19.00;99.90
14378;DHT22;7272;53.668;9.578;2022-08-05T06:10:18;19.00;99.90
14378;DHT22;7272;53.668;9.578;2022-08-05T06:13:20;19.10;99.90
14378;DHT22;7272;53.668;9.578;2022-08-05T06:16:22;19.00;99.90
14378;DHT22;7272;53.668;9.578;2022-08-05T06:19:25;19.00;99.90
14378;DHT22;7272;53.668;9.578;2022-08-05T06:22:29;19.10;99.90
14378;DHT22;7272;53.668;9.578;2022-08-05T06:25:31;19.20;99.90
14378;DHT22;7272;53.668;9.578;2022-08-05T06:28:33;19.30;99.90
14378;DHT22;7272;53.668;9.578;2022-08-05T06:31:36;19.30;99.90
14378;DHT22;7272;53.668;9.578;2022-08-05T06:34:40;19.30;99.90
14378;DHT22;7272;53.668;9.578;2022-08-05T06:37:42;19.30;99.90
14378;DHT22;7272;53.668;9.578;2022-08-05T06:40:44;19.40;99.90
14378;DHT22;7272;53.668;9.578;2022-08-05T06:43:46;19.50;99.90
14378;DHT22;7272;53.668;9.578;2022-08-05T06:46:48;19.40;99.90
14378;DHT22;7272;53.668;9.578;2022-08-05T06:49:51;19.50;99.90
14378;DHT22;7272;53.668;9.578;2022-08-05T06:52:53;19.60;99.90
14378;DHT22;7272;53.668;9.578;2022-08-05T06:55:55;19.60;99.90
14378;DHT22;7272;53.668;9.578;2022-08-05T06:58:57;19.70;99.90
14378;DHT22;7272;53.668;9.578;2022-08-05T07:01:59;19.80;99.90
14378;DHT22;7272;53.668;9.578;2022-08-05T07:05:03;19.80;99.90
14378;DHT22;7272;53.668;9.578;2022-08-05T07:08:06;19.90;99.90
14378;DHT22;7272;53.668;9.578;2022-08-05T07:11:08;19.80;99.90
14378;DHT22;7272;53.668;9.578;2022-08-05T07:14:09;19.60;99.90
14378;DHT22;7272;53.668;9.578;2022-08-05T07:17:29;19.50;99.90
14378;DHT22;7272;53.668;9.578;2022-08-05T07:20:32;19.40;99.90
14378;DHT22;7272;53.668;9.578;2022-08-05T07:23:34;19.30;99.90
14378;DHT22;7272;53.668;9.578;2022-08-05T07:26:37;19.20;99.90
14378;DHT22;7272;53.668;9.578;2022-08-05T07:29:39;19.20;99.90
14378;DHT22;7272;53.668;9.578;2022-08-05T07:32:41;19.20;99.90
14378;DHT22;7272;53.668;9.578;2022-08-05T07:35:44;19.20;99.90
14378;DHT22;7272;53.668;9.578;2022-08-05T07:38:46;19.10;99.90
14378;DHT22;7272;53.668;9.578;2022-08-05T07:41:48;19.10;99.90
14378;DHT22;7272;53.668;9.578;2022-08-05T07:44:50;19.20;99.90
14378;DHT22;7272;53.668;9.578;2022-08-05T07:47:52;19.30;99.90
14378;DHT22;7272;53.668;9.578;2022-08-05T07:50:55;19.20;99.90
14378;DHT22;7272;53.668;9.578;2022-08-05T07:53:57;19.20;99.90
14378;DHT22;7272;53.668;9.578;2022-08-05T07:57:00;19.10;99.90
14378;DHT22;7272;53.668;9.578;2022-08-05T08:00:04;19.10;99.90
14378;DHT22;7272;53.668;9.578;2022-08-05T08:03:12;19.00;99.90
14378;DHT22;7272;53.668;9.578;2022-08-05T08:06:16;19.00;99.90
14378;DHT22;7272;53.668;9.578;2022-08-05T08:09:18;19.30;99.90
14378;DHT22;7272;53.668;9.578;2022-08-05T08:12:20;19.40;99.90
14378;DHT22;7272;53.668;9.578;2022-08-05T08:15:22;19.30;99.90
14378;DHT22;7272;53.668;9.578;2022-08-05T08:18:24;19.30;99.90
14378;DHT22;7272;53.668;9.578;2022-08-05T08:21:27;19.40;99.90
14378;DHT22;7272;53.668;9.578;2022-08-05T08:24:30;19.40;99.90
14378;DHT22;7272;53.668;9.578;2022-08-05T08:27:32;19.40;99.90
14378;DHT22;7272;53.668;9.578;2022-08-05T08:30:34;19.30;99.90
14378;DHT22;7272;53.668;9.578;2022-08-05T08:33:36;19.30;99.90
14378;DHT22;7272;53.668;9.578;2022-08-05T08:36:39;19.30;99.90
14378;DHT22;7272;53.668;9.578;2022-08-05T08:39:41;19.30;99.90
14378;DHT22;7272;53.668;9.578;2022-08-05T08:42:46;19.40;99.90
14378;DHT22;7272;53.668;9.578;2022-08-05T08:45:49;19.60;99.90
14378;DHT22;7272;53.668;9.578;2022-08-05T08:48:53;19.60;99.90
14378;DHT22;7272;53.668;9.578;2022-08-05T08:52:02;19.50;99.90
14378;DHT22;7272;53.668;9.578;2022-08-05T08:55:07;19.50;99.90
14378;DHT22;7272;53.668;9.578;2022-08-05T08:58:09;19.30;99.90
14378;DHT22;7272;53.668;9.578;2022-08-05T09:01:11;19.30;99.90
14378;DHT22;7272;53.668;9.578;2022-08-05T09:04:14;19.40;99.90
14378;DHT22;7272;53.668;9.578;2022-08-05T09:07:18;19.50;99.90
14378;DHT22;7272;53.668;9.578;2022-08-05T09:10:20;19.60;99.90
14378;DHT22;7272;53.668;9.578;2022-08-05T09:13:23;19.60;99.90
14378;DHT22;7272;53.668;9.578;2022-08-05T09:16:25;19.60;99.90
14378;DHT22;7272;53.668;9.578;2022-08-05T09:19:27;19.70;99.90
14378;DHT22;7272;53.668;9.578;2022-08-05T09:23:07;19.70;99.90
14378;DHT22;7272;53.668;9.578;2022-08-05T09:26:12;19.80;99.90
14378;DHT22;7272;53.668;9.578;2022-08-05T09:29:17;20.00;99.90
14378;DHT22;7272;53.668;9.578;2022-08-05T09:32:33;19.90;99.90
14378;DHT22;7272;53.668;9.578;2022-08-05T09:35:35;19.90;99.90
14378;DHT22;7272;53.668;9.578;2022-08-05T09:38:54;19.80;99.90
14378;DHT22;7272;53.668;9.578;2022-08-05T09:41:57;19.70;99.90
14378;DHT22;7272;53.668;9.578;2022-08-05T09:45:05;19.70;99.90
14378;DHT22;7272;53.668;9.578;2022-08-05T09:48:18;19.70;99.90
14378;DHT22;7272;53.668;9.578;2022-08-05T09:51:30;19.60;99.90
14378;DHT22;7272;53.668;9.578;2022-08-05T09:54:34;19.60;99.90
14378;DHT22;7272;53.668;9.578;2022-08-05T09:57:38;19.60;99.90
14378;DHT22;7272;53.668;9.578;2022-08-05T10:00:51;19.60;99.90
14378;DHT22;7272;53.668;9.578;2022-08-05T10:03:55;19.60;99.90
14378;DHT22;7272;53.668;9.578;2022-08-05T10:06:59;19.80;99.90
14378;DHT22;7272;53.668;9.578;2022-08-05T10:10:03;19.90;99.90
14378;DHT22;7272;53.668;9.578;2022-08-05T10:13:05;19.70;99.90
14378;DHT22;7272;53.668;9.578;2022-08-05T10:16:27;19.60;99.90
14378;DHT22;7272;53.668;9.578;2022-08-05T10:19:30;19.50;99.90
14378;DHT22;7272;53.668;9.578;2022-08-05T10:22:33;19.50;99.90
14378;DHT22;7272;53.668;9.578;2022-08-05T10:25:37;19.50;99.90
14378;DHT22;7272;53.668;9.578;2022-08-05T10:28:39;19.50;99.90
14378;DHT22;7272;53.668;9.578;2022-08-05T10:31:42;19.30;99.90
14378;DHT22;7272;53.668;9.578;2022-08-05T10:34:44;19.30;99.90
14378;DHT22;7272;53.668;9.578;2022-08-05T10:37:46;19.30;99.90
14378;DHT22;7272;53.668;9.578;2022-08-05T10:40:57;19.30;99.90
14378;DHT22;7272;53.668;9.578;2022-08-05T10:44:06;19.40;99.90
14378;DHT22;7272;53.668;9.578;2022-08-05T10:47:10;19.50;99.90
14378;DHT22;7272;53.668;9.578;2022-08-05T10:50:13;19.70;99.90
14378;DHT22;7272;53.668;9.578;2022-08-05T10:53:32;19.60;99.90
14378;DHT22;7272;53.668;9.578;2022-08-05T10:56:44;19.50;99.90
14378;DHT22;7272;53.668;9.578;2022-08-05T10:59:46;19.50;99.90
14378;DHT22;7272;53.668;9.578;2022-08-05T11:03:07;19.50;99.90
14378;DHT22;7272;53.668;9.578;2022-08-05T11:06:11;19.60;99.90
14378;DHT22;7272;53.668;9.578;2022-08-05T11:09:18;19.70;99.90
14378;DHT22;7272;53.668;9.578;2022-08-05T11:12:44;19.60;99.90
14378;DHT22;7272;53.668;9.578;2022-08-05T11:15:46;19.50;99.90
14378;DHT22;7272;53.668;9.578;2022-08-05T11:19:24;19.50;99.90
14378;DHT22;7272;53.668;9.578;2022-08-05T11:22:43;19.50;99.90
14378;DHT22;7272;53.668;9.578;2022-08-05T11:25:59;19.60;99.90
14378;DHT22;7272;53.668;9.578;2022-08-05T11:29:04;19.60;99.90
14378;DHT22;7272;53.668;9.578;2022-08-05T11:32:25;19.60;99.90
14378;DHT22;7272;53.668;9.578;2022-08-05T11:35:53;19.60;99.90
14378;DHT22;7272;53.668;9.578;2022-08-05T11:38:55;19.60;99.90
14378;DHT22;7272;53.668;9.578;2022-08-05T11:41:57;19.50;99.90
14378;DHT22;7272;53.668;9.578;2022-08-05T11:45:04;19.60;99.90
14378;DHT22;7272;53.668;9.578;2022-08-05T11:48:07;19.70;99.90
14378;DHT22;7272;53.668;9.578;2022-08-05T11:51:09;19.80;99.90
14378;DHT22;7272;53.668;9.578;2022-08-05T11:54:13;19.80;99.90
14378;DHT22;7272;53.668;9.578;2022-08-05T11:57:16;19.80;99.90
14378;DHT22;7272;53.668;9.578;2022-08-05T12:00:29;19.80;99.90
14378;DHT22;7272;53.668;9.578;2022-08-05T12:03:40;19.90;99.90
14378;DHT22;7272;53.668;9.578;2022-08-05T12:06:43;20.00;99.90
14378;DHT22;7272;53.668;9.578;2022-08-05T12:09:47;20.10;99.90
14378;DHT22;7272;53.668;9.578;2022-08-05T12:12:49;20.20;99.90
14378;DHT22;7272;53.668;9.578;2022-08-05T12:15:53;20.30;99.90
14378;DHT22;7272;53.668;9.578;2022-08-05T12:18:55;20.50;99.90
14378;DHT22;7272;53.668;9.578;2022-08-05T12:21:57;20.60;99.90
14378;DHT22;7272;53.668;9.578;2022-08-05T12:25:01;20.70;99.90
14378;DHT22;7272;53.668;9.578;2022-08-05T12:28:03;20.80;99.90
14378;DHT22;7272;53.668;9.578;2022-08-05T12:31:06;20.90;99.90
14378;DHT22;7272;53.668;9.578;2022-08-05T12:34:09;21.20;99.90
14378;DHT22;7272;53.668;9.578;2022-08-05T12:37:11;21.50;99.90
14378;DHT22;7272;53.668;9.578;2022-08-05T12:40:14;22.10;99.90
14378;DHT22;7272;53.668;9.578;2022-08-05T12:43:16;22.30;99.90
14378;DHT22;7272;53.668;9.578;2022-08-05T12:46:25;22.60;99.90
14378;DHT22;7272;53.668;9.578;2022-08-05T12:49:38;22.70;99.90
14378;DHT22;7272;53.668;9.578;2022-08-05T12:52:41;22.50;99.90
14378;DHT22;7272;53.668;9.578;2022-08-05T12:55:45;22.30;99.90
14378;DHT22;7272;53.668;9.578;2022-08-05T12:59:11;22.10;99.90
14378;DHT22;7272;53.668;9.578;2022-08-05T13:02:21;22.00;99.90
14378;DHT22;7272;53.668;9.578;2022-08-05T13:05:26;22.10;99.90
14378;DHT22;7272;53.668;9.578;2022-08-05T13:08:29;22.10;99.90
14378;DHT22;7272;53.668;9.578;2022-08-05T13:11:31;22.00;99.90
14378;DHT22;7272;53.668;9.578;2022-08-05T13:14:36;21.90;99.90
14378;DHT22;7272;53.668;9.578;2022-08-05T13:17:40;21.80;99.90
14378;DHT22;7272;53.668;9.578;2022-08-05T13:20:42;21.80;99.90
14378;DHT22;7272;53.668;9.578;2022-08-05T13:23:43;21.80;99.90
14378;DHT22;7272;53.668;9.578;2022-08-05T13:26:46;21.90;99.90
14378;DHT22;7272;53.668;9.578;2022-08-05T13:29:48;21.90;99.90
14378;DHT22;7272;53.668;9.578;2022-08-05T13:32:52;21.80;99.90
14378;DHT22;7272;53.668;9.578;2022-08-05T13:35:54;21.70;99.90
14378;DHT22;7272;53.668;9.578;2022-08-05T13:38:56;21.60;99.90
14378;DHT22;7272;53.668;9.578;2022-08-05T13:41:58;21.70;99.90
14378;DHT22;7272;53.668;9.578;2022-08-05T13:45:01;21.70;99.90
14378;DHT22;7272;53.668;9.578;2022-08-05T13:48:04;21.80;99.90
14378;DHT22;7272;53.668;9.578;2022-08-05T13:51:07;21.80;99.90
14378;DHT22;7272;53.668;9.578;2022-08-05T13:54:09;21.80;99.90
14378;DHT22;7272;53.668;9.578;2022-08-05T13:57:12;21.80;99.90
14378;DHT22;7272;53.668;9.578;2022-08-05T14:00:14;21.80;99.90
14378;DHT22;7272;53.668;9.578;2022-08-05T14:03:17;21.80;99.90
14378;DHT22;7272;53.668;9.578;2022-08-05T14:06:19;21.80;99.90
14378;DHT22;7272;53.668;9.578;2022-08-05T14:09:21;21.80;99.90
14378;DHT22;7272;53.668;9.578;2022-08-05T14:12:23;21.80;99.90
14378;DHT22;7272;53.668;9.578;2022-08-05T14:15:26;21.70;99.90
14378;DHT22;7272;53.668;9.578;2022-08-05T14:18:30;21.60;99.90
14378;DHT22;7272;53.668;9.578;2022-08-05T14:21:32;21.60;99.90
14378;DHT22;7272;53.668;9.578;2022-08-05T14:24:34;21.90;99.90
14378;DHT22;7272;53.668;9.578;2022-08-05T14:27:37;22.00;99.90
14378;DHT22;7272;53.668;9.578;2022-08-05T14:30:39;22.00;99.90
14378;DHT22;7272;53.668;9.578;2022-08-05T14:33:43;22.00;99.90
14378;DHT22;7272;53.668;9.578;2022-08-05T14:36:44;22.10;99.90
14378;DHT22;7272;53.668;9.578;2022-08-05T14:39:46;22.20;99.90
14378;DHT22;7272;53.668;9.578;2022-08-05T14:42:48;22.40;99.90
14378;DHT22;7272;53.668;9.578;2022-08-05T14:45:50;22.40;99.90
14378;DHT22;7272;53.668;9.578;2022-08-05T14:48:54;22.40;99.90
14378;DHT22;7272;53.668;9.578;2022-08-05T14:51:56;22.20;99.90
14378;DHT22;7272;53.668;9.578;2022-08-05T14:54:58;22.00;99.90
14378;DHT22;7272;53.668;9.578;2022-08-05T14:58:00;21.70;99.90
14378;DHT22;7272;53.668;9.578;2022-08-05T15:01:02;21.60;99.90
14378;DHT22;7272;53.668;9.578;2022-08-05T15:04:06;21.10;99.90
14378;DHT22;7272;53.668;9.578;2022-08-05T15:07:09;20.40;99.90
14378;DHT22;7272;53.668;9.578;2022-08-05T15:10:11;20.10;99.90
14378;DHT22;7272;53.668;9.578;2022-08-05T15:13:13;19.70;99.90
14378;DHT22;7272;53.668;9.578;2022-08-05T15:16:15;19.60;99.90
14378;DHT22;7272;53.668;9.578;2022-08-05T15:19:18;19.50;99.90
14378;DHT22;7272;53.668;9.578;2022-08-05T15:22:20;19.50;99.90
14378;DHT22;7272;53.668;9.578;2022-08-05T15:25:23;19.40;99.90
14378;DHT22;7272;53.668;9.578;2022-08-05T15:28:25;19.30;99.90
14378;DHT22;7272;53.668;9.578;2022-08-05T15:31:27;19.40;99.90
14378;DHT22;7272;53.668;9.578;2022-08-05T15:34:31;19.60;99.90
14378;DHT22;7272;53.668;9.578;2022-08-05T15:37:33;20.00;99.90
14378;DHT22;7272;53.668;9.578;2022-08-05T15:40:34;20.10;99.90
14378;DHT22;7272;53.668;9.578;2022-08-05T15:43:36;20.20;99.90
14378;DHT22;7272;53.668;9.578;2022-08-05T15:46:38;20.20;99.90
14378;DHT22;7272;53.668;9.578;2022-08-05T15:49:42;20.20;99.90
14378;DHT22;7272;53.668;9.578;2022-08-05T15:52:44;20.20;99.90
14378;DHT22;7272;53.668;9.578;2022-08-05T15:55:46;20.20;99.90
14378;DHT22;7272;53.668;9.578;2022-08-05T15:58:48;20.10;99.90
14378;DHT22;7272;53.668;9.578;2022-08-05T16:01:50;20.10;99.90
14378;DHT22;7272;53.668;9.578;2022-08-05T16:04:53;20.10;99.90
14378;DHT22;7272;53.668;9.578;2022-08-05T16:07:55;20.00;99.90
14378;DHT22;7272;53.668;9.578;2022-08-05T16:10:57;19.80;99.90
14378;DHT22;7272;53.668;9.578;2022-08-05T16:13:59;19.80;99.90
14378;DHT22;7272;53.668;9.578;2022-08-05T16:17:02;19.60;99.90
14378;DHT22;7272;53.668;9.578;2022-08-05T16:20:07;19.50;99.90
14378;DHT22;7272;53.668;9.578;2022-08-05T16:23:09;19.60;99.90
14378;DHT22;7272;53.668;9.578;2022-08-05T16:26:11;19.70;99.90
14378;DHT22;7272;53.668;9.578;2022-08-05T16:29:13;19.80;99.90
14378;DHT22;7272;53.668;9.578;2022-08-05T16:32:15;19.90;99.90
14378;DHT22;7272;53.668;9.578;2022-08-05T16:35:18;20.20;99.90
14378;DHT22;7272;53.668;9.578;2022-08-05T16:38:20;20.20;99.90
14378;DHT22;7272;53.668;9.578;2022-08-05T16:41:22;19.90;99.90
14378;DHT22;7272;53.668;9.578;2022-08-05T16:44:24;19.50;99.90
14378;DHT22;7272;53.668;9.578;2022-08-05T16:47:26;19.10;99.90
14378;DHT22;7272;53.668;9.578;2022-08-05T16:50:30;18.80;99.90
14378;DHT22;7272;53.668;9.578;2022-08-05T16:53:32;18.90;99.90
14378;DHT22;7272;53.668;9.578;2022-08-05T16:56:34;18.80;99.90
14378;DHT22;7272;53.668;9.578;2022-08-05T16:59:36;18.70;99.90
14378;DHT22;7272;53.668;9.578;2022-08-05T17:02:38;18.60;99.90
14378;DHT22;7272;53.668;9.578;2022-08-05T17:05:41;18.50;99.90
14378;DHT22;7272;53.668;9.578;2022-08-05T17:08:43;18.50;99.90
14378;DHT22;7272;53.668;9.578;2022-08-05T17:11:45;18.50;99.90
14378;DHT22;7272;53.668;9.578;2022-08-05T17:14:47;18.50;99.90
14378;DHT22;7272;53.668;9.578;2022-08-05T17:17:49;18.40;99.90
14378;DHT22;7272;53.668;9.578;2022-08-05T17:20:52;18.30;99.90
14378;DHT22;7272;53.668;9.578;2022-08-05T17:23:54;18.30;99.90
14378;DHT22;7272;53.668;9.578;2022-08-05T17:26:56;18.20;99.90
14378;DHT22;7272;53.668;9.578;2022-08-05T17:29:58;18.20;99.90
14378;DHT22;7272;53.668;9.578;2022-08-05T17:33:00;18.30;99.90
14378;DHT22;7272;53.668;9.578;2022-08-05T17:36:04;18.40;99.90
14378;DHT22;7272;53.668;9.578;2022-08-05T17:39:06;18.20;99.90
14378;DHT22;7272;53.668;9.578;2022-08-05T17:42:08;18.00;99.90
14378;DHT22;7272;53.668;9.578;2022-08-05T17:45:11;18.00;99.90
14378;DHT22;7272;53.668;9.578;2022-08-05T17:48:12;17.90;99.90
14378;DHT22;7272;53.668;9.578;2022-08-05T17:51:16;17.90;99.90
14378;DHT22;7272;53.668;9.578;2022-08-05T17:54:18;17.90;99.90
14378;DHT22;7272;53.668;9.578;2022-08-05T17:57:19;17.80;99.90
14378;DHT22;7272;53.668;9.578;2022-08-05T18:00:22;17.70;99.90
14378;DHT22;7272;53.668;9.578;2022-08-05T18:03:23;17.70;99.90
14378;DHT22;7272;53.668;9.578;2022-08-05T18:06:27;17.60;99.90
14378;DHT22;7272;53.668;9.578;2022-08-05T18:09:29;17.60;99.90
14378;DHT22;7272;53.668;9.578;2022-08-05T18:12:31;17.60;99.90
14378;DHT22;7272;53.668;9.578;2022-08-05T18:15:33;17.50;99.90
14378;DHT22;7272;53.668;9.578;2022-08-05T18:18:35;17.40;99.90
14378;DHT22;7272;53.668;9.578;2022-08-05T18:21:39;17.40;99.90
14378;DHT22;7272;53.668;9.578;2022-08-05T18:24:41;17.30;99.90
14378;DHT22;7272;53.668;9.578;2022-08-05T18:27:43;17.20;99.90
14378;DHT22;7272;53.668;9.578;2022-08-05T18:30:45;17.20;99.90
14378;DHT22;7272;53.668;9.578;2022-08-05T18:33:47;17.30;99.90
14378;DHT22;7272;53.668;9.578;2022-08-05T18:36:51;17.20;99.90
14378;DHT22;7272;53.668;9.578;2022-08-05T18:39:53;17.10;99.90
14378;DHT22;7272;53.668;9.578;2022-08-05T18:42:55;17.00;99.90
14378;DHT22;7272;53.668;9.578;2022-08-05T18:45:58;16.90;99.90
14378;DHT22;7272;53.668;9.578;2022-08-05T18:49:00;17.00;99.90
14378;DHT22;7272;53.668;9.578;2022-08-05T18:52:24;17.10;99.90
14378;DHT22;7272;53.668;9.578;2022-08-05T18:55:36;16.90;99.90
14378;DHT22;7272;53.668;9.578;2022-08-05T18:58:38;16.90;99.90
14378;DHT22;7272;53.668;9.578;2022-08-05T19:01:40;16.90;99.90
14378;DHT22;7272;53.668;9.578;2022-08-05T19:04:41;16.90;99.90
14378;DHT22;7272;53.668;9.578;2022-08-05T19:07:45;17.10;99.90
14378;DHT22;7272;53.668;9.578;2022-08-05T19:10:49;17.30;99.90
14378;DHT22;7272;53.668;9.578;2022-08-05T19:13:51;17.30;99.90
14378;DHT22;7272;53.668;9.578;2022-08-05T19:16:53;17.30;99.90
14378;DHT22;7272;53.668;9.578;2022-08-05T19:19:55;17.30;99.90
14378;DHT22;7272;53.668;9.578;2022-08-05T19:22:58;17.30;99.90
14378;DHT22;7272;53.668;9.578;2022-08-05T19:26:00;17.40;99.90
14378;DHT22;7272;53.668;9.578;2022-08-05T19:29:02;17.40;99.90
14378;DHT22;7272;53.668;9.578;2022-08-05T19:32:04;17.40;99.90
14378;DHT22;7272;53.668;9.578;2022-08-05T19:35:07;17.30;99.90
14378;DHT22;7272;53.668;9.578;2022-08-05T19:38:11;17.10;99.90
14378;DHT22;7272;53.668;9.578;2022-08-05T19:41:13;17.00;99.90